Current Weather

Heathrow

Heathrow, United Kingdom (EGLL)

Report from: Sunday, January 29, 2023 4:20 PM GMT
Current time: Sunday, January 29, 2023 4:39 PM GMT

Nearby weather
Weather history
Weather forecast

Temperature8.0°C (46.4°F)
Wind chill5.2°C (41.4°F)
Dew point7.0°C (44.6°F)
Winds 9 kts (4.6 m/s, 10.4 mph) West-Southwest (250°)
Visibility6.2 mi. (10 km)
Clouds Few clouds 1,100 ft. (335 m)
Scattered clouds 2,000 ft. (610 m)
Altimeter30.21 in.Hg (1023 mB)
Relative humidity93 %
Density altitude-1,027 ft. (-313 m)
Remarks Fully automated report
Corrected report
No significant changes expected in the next two hours
Flight conditions Visual Meteorological Conditions
Raw dataCOR EGLL 291620Z AUTO 25009KT 9999 FEW011 SCT020 08/07 Q1023 NOSIG
An error has occurred. This application may no longer respond until reloaded. Reload 🗙